sensor_id;sensor_type;location;lat;lon;timestamp;temperature;humidity
11656;DHT22;5884;43.618;1.438;2022-07-11T04:46:38;20.70;99.90
11656;DHT22;5884;43.618;1.438;2022-07-11T04:49:05;20.80;99.90
11656;DHT22;5884;43.618;1.438;2022-07-11T04:51:32;20.70;99.90
11656;DHT22;5884;43.618;1.438;2022-07-11T04:54:01;20.70;99.90
11656;DHT22;5884;43.618;1.438;2022-07-11T04:56:29;20.70;99.90
11656;DHT22;5884;43.618;1.438;2022-07-11T04:58:56;20.70;99.90
11656;DHT22;5884;43.618;1.438;2022-07-11T05:01:23;20.80;99.90
11656;DHT22;5884;43.618;1.438;2022-07-11T05:03:52;20.80;99.90
11656;DHT22;5884;43.618;1.438;2022-07-11T05:06:20;20.80;99.90
11656;DHT22;5884;43.618;1.438;2022-07-11T05:08:47;20.80;99.90
11656;DHT22;5884;43.618;1.438;2022-07-11T05:11:14;20.80;99.90
11656;DHT22;5884;43.618;1.438;2022-07-11T05:13:42;20.80;99.90
11656;DHT22;5884;43.618;1.438;2022-07-11T05:16:09;20.80;99.90
11656;DHT22;5884;43.618;1.438;2022-07-11T05:18:36;20.80;99.90
11656;DHT22;5884;43.618;1.438;2022-07-11T05:21:05;20.80;99.90
11656;DHT22;5884;43.618;1.438;2022-07-11T05:23:33;20.80;99.90
11656;DHT22;5884;43.618;1.438;2022-07-11T05:26:00;20.80;99.90
11656;DHT22;5884;43.618;1.438;2022-07-11T05:28:30;20.80;99.90
11656;DHT22;5884;43.618;1.438;2022-07-11T05:30:57;20.90;99.90
11656;DHT22;5884;43.618;1.438;2022-07-11T05:33:24;20.90;99.90
11656;DHT22;5884;43.618;1.438;2022-07-11T05:35:51;20.90;99.90
11656;DHT22;5884;43.618;1.438;2022-07-11T05:38:20;21.00;99.90
11656;DHT22;5884;43.618;1.438;2022-07-11T05:40:48;21.00;99.90
11656;DHT22;5884;43.618;1.438;2022-07-11T05:43:15;21.00;99.90
11656;DHT22;5884;43.618;1.438;2022-07-11T05:45:42;21.10;99.90
11656;DHT22;5884;43.618;1.438;2022-07-11T05:48:09;21.10;99.90
11656;DHT22;5884;43.618;1.438;2022-07-11T05:50:36;21.20;99.90
11656;DHT22;5884;43.618;1.438;2022-07-11T05:53:04;21.20;99.90
11656;DHT22;5884;43.618;1.438;2022-07-11T05:55:32;21.20;99.90
11656;DHT22;5884;43.618;1.438;2022-07-11T05:58:00;21.40;99.90
11656;DHT22;5884;43.618;1.438;2022-07-11T06:00:27;21.40;99.90
11656;DHT22;5884;43.618;1.438;2022-07-11T06:02:54;21.60;99.90
11656;DHT22;5884;43.618;1.438;2022-07-11T06:05:22;21.60;99.90
11656;DHT22;5884;43.618;1.438;2022-07-11T06:07:49;21.60;99.90
11656;DHT22;5884;43.618;1.438;2022-07-11T06:10:35;21.70;99.90
11656;DHT22;5884;43.618;1.438;2022-07-11T06:13:04;21.80;99.90
11656;DHT22;5884;43.618;1.438;2022-07-11T06:15:31;21.90;99.90
11656;DHT22;5884;43.618;1.438;2022-07-11T06:17:58;22.00;99.90
11656;DHT22;5884;43.618;1.438;2022-07-11T06:20:25;22.00;99.90
11656;DHT22;5884;43.618;1.438;2022-07-11T06:22:53;22.10;99.90
11656;DHT22;5884;43.618;1.438;2022-07-11T06:25:20;22.20;99.90
11656;DHT22;5884;43.618;1.438;2022-07-11T06:27:49;22.30;99.90
11656;DHT22;5884;43.618;1.438;2022-07-11T06:30:16;22.30;99.90
11656;DHT22;5884;43.618;1.438;2022-07-11T06:32:44;22.40;99.90
11656;DHT22;5884;43.618;1.438;2022-07-11T06:35:11;22.50;99.90
11656;DHT22;5884;43.618;1.438;2022-07-11T06:37:38;22.70;99.90
11656;DHT22;5884;43.618;1.438;2022-07-11T06:40:07;22.80;99.90
11656;DHT22;5884;43.618;1.438;2022-07-11T06:42:37;22.90;99.90
11656;DHT22;5884;43.618;1.438;2022-07-11T06:45:07;22.90;99.90
11656;DHT22;5884;43.618;1.438;2022-07-11T06:47:35;22.90;99.90
11656;DHT22;5884;43.618;1.438;2022-07-11T06:50:02;23.10;99.90
11656;DHT22;5884;43.618;1.438;2022-07-11T06:52:30;23.10;99.90
11656;DHT22;5884;43.618;1.438;2022-07-11T06:54:57;23.30;99.90
11656;DHT22;5884;43.618;1.438;2022-07-11T06:57:24;23.40;99.90
11656;DHT22;5884;43.618;1.438;2022-07-11T06:59:52;23.50;99.90
11656;DHT22;5884;43.618;1.438;2022-07-11T07:02:20;23.60;99.90
11656;DHT22;5884;43.618;1.438;2022-07-11T07:04:53;24.10;99.90
11656;DHT22;5884;43.618;1.438;2022-07-11T07:07:20;25.00;99.90
11656;DHT22;5884;43.618;1.438;2022-07-11T07:09:52;24.80;99.90
11656;DHT22;5884;43.618;1.438;2022-07-11T07:12:21;24.40;99.90
11656;DHT22;5884;43.618;1.438;2022-07-11T07:14:48;24.30;99.90
11656;DHT22;5884;43.618;1.438;2022-07-11T07:17:16;24.10;99.90
11656;DHT22;5884;43.618;1.438;2022-07-11T07:19:45;24.10;99.90
11656;DHT22;5884;43.618;1.438;2022-07-11T07:22:12;24.20;99.90
11656;DHT22;5884;43.618;1.438;2022-07-11T07:24:42;24.20;99.90
11656;DHT22;5884;43.618;1.438;2022-07-11T07:27:09;24.30;99.90
11656;DHT22;5884;43.618;1.438;2022-07-11T07:29:36;24.40;99.90
11656;DHT22;5884;43.618;1.438;2022-07-11T07:32:04;24.50;99.90
11656;DHT22;5884;43.618;1.438;2022-07-11T07:34:32;24.60;99.90
11656;DHT22;5884;43.618;1.438;2022-07-11T07:37:01;24.70;99.90
11656;DHT22;5884;43.618;1.438;2022-07-11T07:39:28;24.70;99.90
11656;DHT22;5884;43.618;1.438;2022-07-11T07:41:55;24.80;99.90
11656;DHT22;5884;43.618;1.438;2022-07-11T07:44:23;24.90;99.90
11656;DHT22;5884;43.618;1.438;2022-07-11T07:46:50;25.00;99.90
11656;DHT22;5884;43.618;1.438;2022-07-11T07:49:17;25.00;99.90
11656;DHT22;5884;43.618;1.438;2022-07-11T07:51:44;25.20;99.90
11656;DHT22;5884;43.618;1.438;2022-07-11T07:54:13;25.20;99.90
11656;DHT22;5884;43.618;1.438;2022-07-11T07:56:40;25.30;99.90
11656;DHT22;5884;43.618;1.438;2022-07-11T07:59:07;25.40;99.90
11656;DHT22;5884;43.618;1.438;2022-07-11T08:01:34;25.60;99.90
11656;DHT22;5884;43.618;1.438;2022-07-11T08:04:01;26.00;99.90
11656;DHT22;5884;43.618;1.438;2022-07-11T08:06:29;27.20;99.90
11656;DHT22;5884;43.618;1.438;2022-07-11T08:08:56;29.10;99.90
11656;DHT22;5884;43.618;1.438;2022-07-11T08:11:25;28.80;99.90
11656;DHT22;5884;43.618;1.438;2022-07-11T08:13:52;28.00;99.90
11656;DHT22;5884;43.618;1.438;2022-07-11T08:16:20;27.50;99.90
11656;DHT22;5884;43.618;1.438;2022-07-11T08:18:47;27.30;99.90
11656;DHT22;5884;43.618;1.438;2022-07-11T08:21:14;27.20;99.90
11656;DHT22;5884;43.618;1.438;2022-07-11T08:23:42;27.30;99.90
11656;DHT22;5884;43.618;1.438;2022-07-11T08:26:09;27.30;99.90
11656;DHT22;5884;43.618;1.438;2022-07-11T08:28:38;27.40;99.90
11656;DHT22;5884;43.618;1.438;2022-07-11T08:31:05;27.50;99.90
11656;DHT22;5884;43.618;1.438;2022-07-11T08:33:33;27.50;99.90
11656;DHT22;5884;43.618;1.438;2022-07-11T08:36:01;27.70;99.90
11656;DHT22;5884;43.618;1.438;2022-07-11T08:38:29;27.80;99.90
11656;DHT22;5884;43.618;1.438;2022-07-11T08:40:56;27.80;99.90
11656;DHT22;5884;43.618;1.438;2022-07-11T08:43:27;27.90;99.90
11656;DHT22;5884;43.618;1.438;2022-07-11T08:45:56;28.00;99.90
11656;DHT22;5884;43.618;1.438;2022-07-11T08:48:24;28.20;99.90
11656;DHT22;5884;43.618;1.438;2022-07-11T08:50:51;28.40;99.90
11656;DHT22;5884;43.618;1.438;2022-07-11T08:53:19;28.40;99.90
11656;DHT22;5884;43.618;1.438;2022-07-11T08:55:46;28.50;99.90
11656;DHT22;5884;43.618;1.438;2022-07-11T08:58:14;28.50;99.90
11656;DHT22;5884;43.618;1.438;2022-07-11T09:00:42;28.70;99.90
11656;DHT22;5884;43.618;1.438;2022-07-11T09:03:15;28.70;99.90
11656;DHT22;5884;43.618;1.438;2022-07-11T09:05:43;28.80;99.90
11656;DHT22;5884;43.618;1.438;2022-07-11T09:08:12;29.00;99.90
11656;DHT22;5884;43.618;1.438;2022-07-11T09:10:39;28.90;99.90
11656;DHT22;5884;43.618;1.438;2022-07-11T09:13:08;28.90;99.90
11656;DHT22;5884;43.618;1.438;2022-07-11T09:15:38;28.90;99.90
11656;DHT22;5884;43.618;1.438;2022-07-11T09:20:59;29.10;99.90
11656;DHT22;5884;43.618;1.438;2022-07-11T09:23:44;29.40;99.90
11656;DHT22;5884;43.618;1.438;2022-07-11T09:26:30;29.40;99.90
11656;DHT22;5884;43.618;1.438;2022-07-11T09:28:59;29.70;99.90
11656;DHT22;5884;43.618;1.438;2022-07-11T09:31:31;29.70;99.90
11656;DHT22;5884;43.618;1.438;2022-07-11T09:34:03;29.80;99.90
11656;DHT22;5884;43.618;1.438;2022-07-11T09:36:38;29.80;99.90
11656;DHT22;5884;43.618;1.438;2022-07-11T09:39:08;30.00;99.90
11656;DHT22;5884;43.618;1.438;2022-07-11T09:41:37;30.10;99.90
11656;DHT22;5884;43.618;1.438;2022-07-11T09:44:13;30.20;99.90
11656;DHT22;5884;43.618;1.438;2022-07-11T09:46:42;30.10;99.90
11656;DHT22;5884;43.618;1.438;2022-07-11T09:49:13;30.20;99.90
11656;DHT22;5884;43.618;1.438;2022-07-11T09:51:41;30.30;99.90
11656;DHT22;5884;43.618;1.438;2022-07-11T09:54:10;30.40;99.90
11656;DHT22;5884;43.618;1.438;2022-07-11T09:56:41;30.50;99.90
11656;DHT22;5884;43.618;1.438;2022-07-11T09:59:11;30.50;99.90
11656;DHT22;5884;43.618;1.438;2022-07-11T10:01:39;30.70;99.90
11656;DHT22;5884;43.618;1.438;2022-07-11T10:04:07;30.80;99.90
11656;DHT22;5884;43.618;1.438;2022-07-11T10:06:38;30.80;99.90
11656;DHT22;5884;43.618;1.438;2022-07-11T10:09:05;30.90;99.90
11656;DHT22;5884;43.618;1.438;2022-07-11T10:11:33;30.90;99.90
11656;DHT22;5884;43.618;1.438;2022-07-11T10:14:01;30.80;99.90
11656;DHT22;5884;43.618;1.438;2022-07-11T10:16:49;30.80;99.90
11656;DHT22;5884;43.618;1.438;2022-07-11T10:19:38;31.00;99.90
11656;DHT22;5884;43.618;1.438;2022-07-11T10:22:17;31.30;99.90
11656;DHT22;5884;43.618;1.438;2022-07-11T10:24:54;31.40;99.90
11656;DHT22;5884;43.618;1.438;2022-07-11T10:27:33;31.20;98.20
11656;DHT22;5884;43.618;1.438;2022-07-11T10:30:03;31.20;98.60
11656;DHT22;5884;43.618;1.438;2022-07-11T10:32:31;31.30;97.60
11656;DHT22;5884;43.618;1.438;2022-07-11T10:35:06;31.40;97.30
11656;DHT22;5884;43.618;1.438;2022-07-11T10:37:52;31.60;97.40
11656;DHT22;5884;43.618;1.438;2022-07-11T10:40:40;31.70;96.70
11656;DHT22;5884;43.618;1.438;2022-07-11T10:43:09;31.80;96.20
11656;DHT22;5884;43.618;1.438;2022-07-11T10:45:59;31.70;97.40
11656;DHT22;5884;43.618;1.438;2022-07-11T10:48:28;31.70;95.10
11656;DHT22;5884;43.618;1.438;2022-07-11T10:51:16;31.80;94.80
11656;DHT22;5884;43.618;1.438;2022-07-11T10:53:51;31.80;95.80
11656;DHT22;5884;43.618;1.438;2022-07-11T10:56:43;32.00;95.10
11656;DHT22;5884;43.618;1.438;2022-07-11T10:59:18;32.20;94.50
11656;DHT22;5884;43.618;1.438;2022-07-11T11:02:18;32.10;94.50
11656;DHT22;5884;43.618;1.438;2022-07-11T11:04:47;32.20;94.10
11656;DHT22;5884;43.618;1.438;2022-07-11T11:07:28;32.30;92.10
11656;DHT22;5884;43.618;1.438;2022-07-11T11:13:17;32.30;93.60
11656;DHT22;5884;43.618;1.438;2022-07-11T11:15:48;32.30;92.60
11656;DHT22;5884;43.618;1.438;2022-07-11T11:18:36;32.10;90.60
11656;DHT22;5884;43.618;1.438;2022-07-11T11:21:24;32.20;91.40
11656;DHT22;5884;43.618;1.438;2022-07-11T11:24:05;32.30;89.10
11656;DHT22;5884;43.618;1.438;2022-07-11T11:26:49;32.10;86.30
11656;DHT22;5884;43.618;1.438;2022-07-11T11:29:20;32.10;90.80
11656;DHT22;5884;43.618;1.438;2022-07-11T11:31:51;32.30;91.00
11656;DHT22;5884;43.618;1.438;2022-07-11T11:34:20;32.30;90.80
11656;DHT22;5884;43.618;1.438;2022-07-11T11:36:58;32.50;91.00
11656;DHT22;5884;43.618;1.438;2022-07-11T11:39:33;32.50;90.10
11656;DHT22;5884;43.618;1.438;2022-07-11T11:42:07;32.80;89.90
11656;DHT22;5884;43.618;1.438;2022-07-11T11:44:48;32.60;86.80
11656;DHT22;5884;43.618;1.438;2022-07-11T11:47:20;32.70;87.10
11656;DHT22;5884;43.618;1.438;2022-07-11T11:49:48;32.60;88.10
11656;DHT22;5884;43.618;1.438;2022-07-11T11:52:16;32.90;86.20
11656;DHT22;5884;43.618;1.438;2022-07-11T11:54:49;32.90;85.10
11656;DHT22;5884;43.618;1.438;2022-07-11T11:57:21;32.90;85.70
11656;DHT22;5884;43.618;1.438;2022-07-11T11:59:50;32.80;84.60
11656;DHT22;5884;43.618;1.438;2022-07-11T12:02:23;32.80;84.50
11656;DHT22;5884;43.618;1.438;2022-07-11T12:04:51;32.90;83.40
11656;DHT22;5884;43.618;1.438;2022-07-11T12:07:26;33.20;81.70
11656;DHT22;5884;43.618;1.438;2022-07-11T12:09:56;33.10;78.00
11656;DHT22;5884;43.618;1.438;2022-07-11T12:12:28;33.20;79.20
11656;DHT22;5884;43.618;1.438;2022-07-11T12:15:29;33.20;80.40
11656;DHT22;5884;43.618;1.438;2022-07-11T12:18:01;33.20;76.80
11656;DHT22;5884;43.618;1.438;2022-07-11T12:20:37;33.50;76.90
11656;DHT22;5884;43.618;1.438;2022-07-11T12:23:10;33.50;74.30
11656;DHT22;5884;43.618;1.438;2022-07-11T12:25:39;33.60;74.20
11656;DHT22;5884;43.618;1.438;2022-07-11T12:28:07;33.80;75.10
11656;DHT22;5884;43.618;1.438;2022-07-11T12:30:35;33.70;76.00
11656;DHT22;5884;43.618;1.438;2022-07-11T12:33:08;33.80;71.80
11656;DHT22;5884;43.618;1.438;2022-07-11T12:35:44;33.90;72.20
11656;DHT22;5884;43.618;1.438;2022-07-11T12:38:19;33.90;73.40
11656;DHT22;5884;43.618;1.438;2022-07-11T12:41:01;33.90;73.70
11656;DHT22;5884;43.618;1.438;2022-07-11T12:43:55;33.90;72.70
11656;DHT22;5884;43.618;1.438;2022-07-11T12:46:40;34.00;72.20
11656;DHT22;5884;43.618;1.438;2022-07-11T12:49:09;34.20;68.70
11656;DHT22;5884;43.618;1.438;2022-07-11T12:51:38;34.20;70.00
11656;DHT22;5884;43.618;1.438;2022-07-11T12:54:07;34.20;69.50
11656;DHT22;5884;43.618;1.438;2022-07-11T12:56:36;33.90;71.20
11656;DHT22;5884;43.618;1.438;2022-07-11T12:59:09;33.90;71.00
11656;DHT22;5884;43.618;1.438;2022-07-11T13:01:55;33.70;70.40
11656;DHT22;5884;43.618;1.438;2022-07-11T13:04:37;33.50;68.20
11656;DHT22;5884;43.618;1.438;2022-07-11T13:07:25;33.50;66.80
11656;DHT22;5884;43.618;1.438;2022-07-11T13:10:12;33.60;67.30
11656;DHT22;5884;43.618;1.438;2022-07-11T13:12:42;33.60;68.60
11656;DHT22;5884;43.618;1.438;2022-07-11T13:15:13;33.50;66.70
11656;DHT22;5884;43.618;1.438;2022-07-11T13:17:43;33.70;69.40
11656;DHT22;5884;43.618;1.438;2022-07-11T13:20:13;34.10;68.40
11656;DHT22;5884;43.618;1.438;2022-07-11T13:22:41;34.10;64.70
11656;DHT22;5884;43.618;1.438;2022-07-11T13:25:10;34.00;65.00
11656;DHT22;5884;43.618;1.438;2022-07-11T13:27:38;34.10;65.70
11656;DHT22;5884;43.618;1.438;2022-07-11T13:30:07;34.20;67.20
11656;DHT22;5884;43.618;1.438;2022-07-11T13:32:39;34.40;68.80
11656;DHT22;5884;43.618;1.438;2022-07-11T13:35:07;34.50;65.50
11656;DHT22;5884;43.618;1.438;2022-07-11T13:37:35;34.30;65.10
11656;DHT22;5884;43.618;1.438;2022-07-11T13:40:08;34.20;64.30
11656;DHT22;5884;43.618;1.438;2022-07-11T13:42:37;34.20;62.90
11656;DHT22;5884;43.618;1.438;2022-07-11T13:45:07;34.10;62.40
11656;DHT22;5884;43.618;1.438;2022-07-11T13:47:36;34.00;63.10
11656;DHT22;5884;43.618;1.438;2022-07-11T13:50:05;34.10;63.00
11656;DHT22;5884;43.618;1.438;2022-07-11T13:52:33;34.20;62.30
11656;DHT22;5884;43.618;1.438;2022-07-11T13:55:01;34.40;63.10
11656;DHT22;5884;43.618;1.438;2022-07-11T13:57:28;34.60;62.10
11656;DHT22;5884;43.618;1.438;2022-07-11T13:59:57;34.50;59.70
11656;DHT22;5884;43.618;1.438;2022-07-11T14:02:24;34.30;60.40
11656;DHT22;5884;43.618;1.438;2022-07-11T14:04:52;34.30;60.70
11656;DHT22;5884;43.618;1.438;2022-07-11T14:07:20;34.30;60.90
11656;DHT22;5884;43.618;1.438;2022-07-11T14:09:48;34.30;60.90
11656;DHT22;5884;43.618;1.438;2022-07-11T14:12:15;34.20;60.90
11656;DHT22;5884;43.618;1.438;2022-07-11T14:14:42;34.40;60.50
11656;DHT22;5884;43.618;1.438;2022-07-11T14:17:09;34.40;60.00
11656;DHT22;5884;43.618;1.438;2022-07-11T14:19:36;34.70;60.80
11656;DHT22;5884;43.618;1.438;2022-07-11T14:22:05;34.80;59.70
11656;DHT22;5884;43.618;1.438;2022-07-11T14:24:34;35.00;60.00
11656;DHT22;5884;43.618;1.438;2022-07-11T14:27:02;34.80;60.10
11656;DHT22;5884;43.618;1.438;2022-07-11T14:29:31;34.90;61.10
11656;DHT22;5884;43.618;1.438;2022-07-11T14:31:58;35.00;60.10
11656;DHT22;5884;43.618;1.438;2022-07-11T14:34:25;35.10;60.30
11656;DHT22;5884;43.618;1.438;2022-07-11T14:36:53;35.10;59.50
11656;DHT22;5884;43.618;1.438;2022-07-11T14:39:20;35.00;58.80
11656;DHT22;5884;43.618;1.438;2022-07-11T14:41:50;35.00;58.50
11656;DHT22;5884;43.618;1.438;2022-07-11T14:44:17;34.80;58.30
11656;DHT22;5884;43.618;1.438;2022-07-11T14:46:44;34.70;58.00
11656;DHT22;5884;43.618;1.438;2022-07-11T14:49:12;34.70;58.80
11656;DHT22;5884;43.618;1.438;2022-07-11T14:51:39;34.90;58.50
11656;DHT22;5884;43.618;1.438;2022-07-11T14:54:07;35.10;58.70
11656;DHT22;5884;43.618;1.438;2022-07-11T14:56:34;35.10;58.00
11656;DHT22;5884;43.618;1.438;2022-07-11T14:59:04;35.00;58.30
11656;DHT22;5884;43.618;1.438;2022-07-11T15:01:31;35.10;58.80
11656;DHT22;5884;43.618;1.438;2022-07-11T15:03:59;35.10;58.70
11656;DHT22;5884;43.618;1.438;2022-07-11T15:06:28;35.00;58.20
11656;DHT22;5884;43.618;1.438;2022-07-11T15:09:09;35.00;58.40
11656;DHT22;5884;43.618;1.438;2022-07-11T15:11:56;35.10;58.60
11656;DHT22;5884;43.618;1.438;2022-07-11T15:14:42;35.00;58.40
11656;DHT22;5884;43.618;1.438;2022-07-11T15:17:09;35.10;58.90
11656;DHT22;5884;43.618;1.438;2022-07-11T15:19:37;35.20;58.70
11656;DHT22;5884;43.618;1.438;2022-07-11T15:22:05;35.30;59.90
11656;DHT22;5884;43.618;1.438;2022-07-11T15:24:32;35.40;59.60
11656;DHT22;5884;43.618;1.438;2022-07-11T15:26:59;35.50;59.00
11656;DHT22;5884;43.618;1.438;2022-07-11T15:29:27;35.60;59.20
11656;DHT22;5884;43.618;1.438;2022-07-11T15:31:55;35.50;58.20
11656;DHT22;5884;43.618;1.438;2022-07-11T15:34:23;35.50;58.10
11656;DHT22;5884;43.618;1.438;2022-07-11T15:36:50;35.40;58.40
11656;DHT22;5884;43.618;1.438;2022-07-11T15:39:17;35.40;57.40
11656;DHT22;5884;43.618;1.438;2022-07-11T15:41:44;35.50;57.70
11656;DHT22;5884;43.618;1.438;2022-07-11T15:44:12;35.40;57.10
11656;DHT22;5884;43.618;1.438;2022-07-11T15:46:39;35.40;56.70
11656;DHT22;5884;43.618;1.438;2022-07-11T15:49:08;35.30;56.70
11656;DHT22;5884;43.618;1.438;2022-07-11T15:51:36;35.20;57.80
11656;DHT22;5884;43.618;1.438;2022-07-11T15:54:03;35.30;58.40
11656;DHT22;5884;43.618;1.438;2022-07-11T15:56:30;35.50;58.50
11656;DHT22;5884;43.618;1.438;2022-07-11T15:58:57;35.50;57.60
11656;DHT22;5884;43.618;1.438;2022-07-11T16:01:25;35.50;58.50
11656;DHT22;5884;43.618;1.438;2022-07-11T16:03:58;35.30;57.80
11656;DHT22;5884;43.618;1.438;2022-07-11T16:06:27;35.40;58.20
11656;DHT22;5884;43.618;1.438;2022-07-11T16:08:56;35.50;58.40
11656;DHT22;5884;43.618;1.438;2022-07-11T16:11:24;35.30;56.80
11656;DHT22;5884;43.618;1.438;2022-07-11T16:13:51;35.20;57.30
11656;DHT22;5884;43.618;1.438;2022-07-11T16:16:21;35.30;56.70
11656;DHT22;5884;43.618;1.438;2022-07-11T16:18:50;35.20;56.70
11656;DHT22;5884;43.618;1.438;2022-07-11T16:21:18;35.20;56.80
11656;DHT22;5884;43.618;1.438;2022-07-11T16:23:48;35.30;56.80
11656;DHT22;5884;43.618;1.438;2022-07-11T16:26:15;35.40;57.30
11656;DHT22;5884;43.618;1.438;2022-07-11T16:28:43;35.30;56.20
11656;DHT22;5884;43.618;1.438;2022-07-11T16:31:11;35.20;56.20
11656;DHT22;5884;43.618;1.438;2022-07-11T16:33:38;35.20;56.80
11656;DHT22;5884;43.618;1.438;2022-07-11T16:36:06;35.10;57.00
11656;DHT22;5884;43.618;1.438;2022-07-11T16:38:34;35.00;57.10
11656;DHT22;5884;43.618;1.438;2022-07-11T16:41:02;35.10;57.10
11656;DHT22;5884;43.618;1.438;2022-07-11T16:43:47;35.00;56.80
11656;DHT22;5884;43.618;1.438;2022-07-11T16:46:14;35.00;57.30
11656;DHT22;5884;43.618;1.438;2022-07-11T16:48:42;35.00;56.80
11656;DHT22;5884;43.618;1.438;2022-07-11T16:51:09;34.90;57.00
11656;DHT22;5884;43.618;1.438;2022-07-11T16:53:38;34.90;56.20
11656;DHT22;5884;43.618;1.438;2022-07-11T16:56:07;34.80;56.80
11656;DHT22;5884;43.618;1.438;2022-07-11T16:58:34;34.90;57.00
11656;DHT22;5884;43.618;1.438;2022-07-11T17:01:01;34.80;56.40
11656;DHT22;5884;43.618;1.438;2022-07-11T17:03:29;34.90;56.00
11656;DHT22;5884;43.618;1.438;2022-07-11T17:05:56;34.80;56.00
11656;DHT22;5884;43.618;1.438;2022-07-11T17:08:23;34.80;56.30
11656;DHT22;5884;43.618;1.438;2022-07-11T17:11:09;34.70;56.50
11656;DHT22;5884;43.618;1.438;2022-07-11T17:13:37;34.70;56.40
11656;DHT22;5884;43.618;1.438;2022-07-11T17:16:06;34.70;55.30
11656;DHT22;5884;43.618;1.438;2022-07-11T17:18:34;34.70;56.50
11656;DHT22;5884;43.618;1.438;2022-07-11T17:21:03;34.70;55.90
11656;DHT22;5884;43.618;1.438;2022-07-11T17:23:31;34.70;55.50
11656;DHT22;5884;43.618;1.438;2022-07-11T17:25:59;34.60;55.10
11656;DHT22;5884;43.618;1.438;2022-07-11T17:28:27;34.50;54.40
11656;DHT22;5884;43.618;1.438;2022-07-11T17:30:55;34.50;54.80
11656;DHT22;5884;43.618;1.438;2022-07-11T17:33:22;34.40;54.30
11656;DHT22;5884;43.618;1.438;2022-07-11T17:35:50;34.50;55.10
11656;DHT22;5884;43.618;1.438;2022-07-11T17:38:18;34.60;55.50
11656;DHT22;5884;43.618;1.438;2022-07-11T17:40:46;34.60;55.30
11656;DHT22;5884;43.618;1.438;2022-07-11T17:43:14;34.50;54.20
11656;DHT22;5884;43.618;1.438;2022-07-11T17:45:43;34.50;53.80
11656;DHT22;5884;43.618;1.438;2022-07-11T17:48:12;34.40;53.20
11656;DHT22;5884;43.618;1.438;2022-07-11T17:50:39;34.40;55.30
11656;DHT22;5884;43.618;1.438;2022-07-11T17:53:07;34.40;55.70
11656;DHT22;5884;43.618;1.438;2022-07-11T17:55:35;34.50;54.90
11656;DHT22;5884;43.618;1.438;2022-07-11T17:58:03;34.40;54.40
11656;DHT22;5884;43.618;1.438;2022-07-11T18:00:30;34.30;53.70
11656;DHT22;5884;43.618;1.438;2022-07-11T18:02:59;34.30;54.30
11656;DHT22;5884;43.618;1.438;2022-07-11T18:05:26;34.30;54.40
11656;DHT22;5884;43.618;1.438;2022-07-11T18:07:53;34.30;54.70
11656;DHT22;5884;43.618;1.438;2022-07-11T18:10:21;34.20;54.30
11656;DHT22;5884;43.618;1.438;2022-07-11T18:12:48;34.20;54.90
11656;DHT22;5884;43.618;1.438;2022-07-11T18:15:15;34.10;55.00
11656;DHT22;5884;43.618;1.438;2022-07-11T18:17:43;34.10;53.10
11656;DHT22;5884;43.618;1.438;2022-07-11T18:20:12;34.00;51.80
11656;DHT22;5884;43.618;1.438;2022-07-11T18:22:41;34.00;52.30
11656;DHT22;5884;43.618;1.438;2022-07-11T18:25:09;34.00;51.40
11656;DHT22;5884;43.618;1.438;2022-07-11T18:27:37;33.90;52.30
11656;DHT22;5884;43.618;1.438;2022-07-11T18:30:06;33.80;52.40
11656;DHT22;5884;43.618;1.438;2022-07-11T18:32:34;33.80;51.80
11656;DHT22;5884;43.618;1.438;2022-07-11T18:35:01;33.60;52.20
11656;DHT22;5884;43.618;1.438;2022-07-11T18:37:30;33.60;52.20
11656;DHT22;5884;43.618;1.438;2022-07-11T18:39:57;33.60;52.50
11656;DHT22;5884;43.618;1.438;2022-07-11T18:42:42;33.50;52.90
11656;DHT22;5884;43.618;1.438;2022-07-11T18:45:09;33.30;53.20
11656;DHT22;5884;43.618;1.438;2022-07-11T18:47:38;33.30;53.40
11656;DHT22;5884;43.618;1.438;2022-07-11T18:50:07;33.20;53.70
11656;DHT22;5884;43.618;1.438;2022-07-11T18:52:36;33.10;54.00
11656;DHT22;5884;43.618;1.438;2022-07-11T18:55:04;32.90;55.10
11656;DHT22;5884;43.618;1.438;2022-07-11T18:57:32;32.80;55.20
11656;DHT22;5884;43.618;1.438;2022-07-11T19:00:00;32.60;56.40
11656;DHT22;5884;43.618;1.438;2022-07-11T19:02:33;32.40;57.00
11656;DHT22;5884;43.618;1.438;2022-07-11T19:05:00;32.30;57.10
11656;DHT22;5884;43.618;1.438;2022-07-11T19:07:28;32.30;57.70
11656;DHT22;5884;43.618;1.438;2022-07-11T19:09:56;32.10;57.30
11656;DHT22;5884;43.618;1.438;2022-07-11T19:12:23;32.10;58.30
11656;DHT22;5884;43.618;1.438;2022-07-11T19:14:52;31.90;57.50
11656;DHT22;5884;43.618;1.438;2022-07-11T19:17:19;31.80;58.40
11656;DHT22;5884;43.618;1.438;2022-07-11T19:19:47;31.60;58.50
11656;DHT22;5884;43.618;1.438;2022-07-11T19:22:14;31.50;59.20
11656;DHT22;5884;43.618;1.438;2022-07-11T19:24:41;31.40;59.10
11656;DHT22;5884;43.618;1.438;2022-07-11T19:27:10;31.20;59.90
11656;DHT22;5884;43.618;1.438;2022-07-11T19:29:38;31.20;61.20
11656;DHT22;5884;43.618;1.438;2022-07-11T19:32:05;31.00;61.40
11656;DHT22;5884;43.618;1.438;2022-07-11T19:34:33;31.00;62.60
11656;DHT22;5884;43.618;1.438;2022-07-11T19:37:00;30.80;62.50
11656;DHT22;5884;43.618;1.438;2022-07-11T19:39:27;30.70;62.60
11656;DHT22;5884;43.618;1.438;2022-07-11T19:41:55;30.60;63.70
11656;DHT22;5884;43.618;1.438;2022-07-11T19:44:24;30.60;68.50
11656;DHT22;5884;43.618;1.438;2022-07-11T19:46:51;30.50;69.50
11656;DHT22;5884;43.618;1.438;2022-07-11T19:49:19;30.50;74.00
11656;DHT22;5884;43.618;1.438;2022-07-11T19:51:46;30.60;76.10
11656;DHT22;5884;43.618;1.438;2022-07-11T19:54:13;30.60;76.30
11656;DHT22;5884;43.618;1.438;2022-07-11T19:56:58;30.60;79.80
11656;DHT22;5884;43.618;1.438;2022-07-11T19:59:44;30.50;82.10
11656;DHT22;5884;43.618;1.438;2022-07-11T20:02:11;30.50;83.80
11656;DHT22;5884;43.618;1.438;2022-07-11T20:04:38;30.50;86.10
11656;DHT22;5884;43.618;1.438;2022-07-11T20:07:06;30.40;87.70
11656;DHT22;5884;43.618;1.438;2022-07-11T20:09:33;30.30;89.00
11656;DHT22;5884;43.618;1.438;2022-07-11T20:12:01;30.20;90.20
11656;DHT22;5884;43.618;1.438;2022-07-11T20:14:28;30.10;90.60
11656;DHT22;5884;43.618;1.438;2022-07-11T20:16:57;30.10;90.60
11656;DHT22;5884;43.618;1.438;2022-07-11T20:19:24;30.00;91.00
11656;DHT22;5884;43.618;1.438;2022-07-11T20:21:52;30.00;91.10
11656;DHT22;5884;43.618;1.438;2022-07-11T20:24:20;30.00;91.10
11656;DHT22;5884;43.618;1.438;2022-07-11T20:26:47;29.90;91.50
11656;DHT22;5884;43.618;1.438;2022-07-11T20:29:14;29.90;91.50
11656;DHT22;5884;43.618;1.438;2022-07-11T20:31:41;29.80;91.60
11656;DHT22;5884;43.618;1.438;2022-07-11T20:34:10;29.80;91.90
11656;DHT22;5884;43.618;1.438;2022-07-11T20:36:37;29.80;92.00
11656;DHT22;5884;43.618;1.438;2022-07-11T20:39:05;29.70;92.70
11656;DHT22;5884;43.618;1.438;2022-07-11T20:41:32;29.60;92.60
11656;DHT22;5884;43.618;1.438;2022-07-11T20:44:00;29.60;92.90
11656;DHT22;5884;43.618;1.438;2022-07-11T20:46:27;29.50;93.20
11656;DHT22;5884;43.618;1.438;2022-07-11T20:48:55;29.40;93.40
11656;DHT22;5884;43.618;1.438;2022-07-11T20:51:23;29.30;93.40
11656;DHT22;5884;43.618;1.438;2022-07-11T20:53:51;29.30;94.10